createdAt,value
2023-02-17T12:59:19.442Z,3.30
2023-02-17T13:03:21.708Z,2.73
2023-02-17T13:07:26.894Z,3.30
2023-02-17T13:11:30.500Z,2.80
2023-02-17T13:15:34.722Z,3.00
2023-02-17T13:19:36.969Z,2.37
2023-02-17T13:23:41.040Z,3.10
2023-02-17T13:27:43.260Z,3.23
2023-02-17T13:32:05.734Z,3.17
2023-02-17T13:36:18.974Z,3.23
2023-02-17T13:40:21.160Z,2.77
2023-02-17T13:44:32.296Z,2.37
2023-02-17T13:48:35.303Z,2.13
2023-02-17T13:52:37.481Z,1.47
2023-02-17T13:56:40.218Z,2.00
2023-02-17T14:00:45.500Z,1.83
2023-02-17T14:04:47.691Z,2.47
2023-02-17T14:08:50.014Z,2.10
2023-02-17T14:12:52.998Z,2.53
2023-02-17T14:17:05.757Z,2.33
2023-02-17T14:21:11.290Z,2.23
2023-02-17T14:25:14.910Z,2.10
2023-02-17T14:29:17.233Z,1.77
2023-02-17T14:33:21.263Z,2.20
2023-02-17T14:37:26.155Z,1.80
2023-02-17T14:41:29.055Z,1.07
2023-02-17T14:45:31.192Z,1.50
2023-02-17T14:49:33.324Z,1.37
2023-02-17T14:53:35.779Z,2.03
2023-02-17T14:57:37.944Z,1.53
2023-02-17T15:01:40.142Z,1.87
2023-02-17T15:05:43.613Z,1.77
2023-02-17T15:09:46.344Z,1.30
2023-02-17T15:13:48.528Z,1.77
2023-02-17T15:17:50.700Z,2.17
2023-02-17T15:21:53.348Z,2.40
2023-02-17T15:25:56.298Z,2.90
2023-02-17T15:29:58.455Z,2.10
2023-02-17T15:34:01.109Z,1.83
2023-02-17T15:38:03.271Z,2.57
2023-02-17T15:42:07.640Z,1.77
2023-02-17T15:46:14.028Z,3.10
2023-02-17T15:50:19.214Z,2.40
2023-02-17T15:54:22.333Z,2.63
2023-02-17T15:58:24.456Z,1.23
2023-02-17T16:02:26.748Z,2.90
2023-02-17T16:06:29.280Z,2.30
2023-02-17T16:10:32.553Z,1.30
2023-02-17T16:14:36.227Z,3.40
2023-02-17T16:18:38.378Z,3.30
2023-02-17T16:22:40.529Z,2.43
2023-02-17T16:26:42.963Z,1.87
2023-02-17T16:30:45.424Z,2.33
2023-02-17T16:34:47.970Z,2.20
2023-02-17T16:38:50.700Z,2.70
2023-02-17T16:42:53.116Z,2.20
2023-02-17T16:46:56.301Z,2.00
2023-02-17T16:50:58.560Z,1.80
2023-02-17T16:55:00.694Z,2.20
2023-02-17T16:59:02.866Z,1.63
2023-02-17T17:03:05.014Z,1.60
2023-02-17T17:07:07.156Z,1.27
2023-02-17T17:11:13.849Z,1.50
2023-02-17T17:15:16.305Z,1.50
2023-02-17T17:19:18.501Z,1.43
2023-02-17T17:23:20.665Z,1.10
2023-02-17T17:27:22.863Z,1.00
2023-02-17T17:31:25.520Z,1.13
2023-02-17T17:35:28.221Z,0.77
2023-02-17T17:39:30.400Z,1.00
2023-02-17T17:43:32.532Z,1.47
2023-02-17T17:47:34.768Z,1.30
2023-02-17T17:51:37.226Z,1.10
2023-02-17T17:55:39.415Z,0.90
2023-02-17T17:59:41.654Z,1.23
2023-02-17T18:03:43.824Z,1.27
2023-02-17T18:07:47.582Z,0.80
2023-02-17T18:11:51.006Z,1.33
2023-02-17T18:15:53.499Z,0.90
2023-02-17T18:19:56.021Z,0.87
2023-02-17T18:23:58.316Z,0.67
2023-02-17T18:28:00.474Z,0.80
2023-02-17T18:32:02.762Z,0.73
2023-02-17T18:36:14.672Z,0.70
2023-02-17T18:40:18.022Z,0.70
2023-02-17T18:44:20.450Z,0.60
2023-02-17T18:48:22.818Z,0.37
2023-02-17T18:52:25.020Z,0.63
2023-02-17T18:56:28.754Z,0.83
2023-02-17T19:00:30.963Z,0.90
2023-02-17T19:04:33.101Z,0.43
2023-02-17T19:08:35.247Z,0.87
2023-02-17T19:12:37.481Z,0.57
2023-02-17T19:16:39.657Z,1.03
2023-02-17T19:20:43.367Z,0.60
2023-02-17T19:24:46.078Z,0.70
2023-02-17T19:28:49.028Z,1.07
2023-02-17T19:32:51.241Z,0.80
2023-02-17T19:36:53.806Z,0.70
2023-02-17T19:40:56.040Z,0.50
2023-02-17T19:44:58.218Z,0.93
2023-02-17T19:49:00.422Z,0.47
2023-02-17T19:53:02.607Z,0.97
2023-02-17T19:57:04.794Z,0.70
2023-02-17T20:01:11.722Z,1.13
2023-02-17T20:05:13.939Z,0.60
2023-02-17T20:09:17.406Z,1.03
2023-02-17T20:13:19.602Z,0.60
2023-02-17T20:17:21.917Z,0.97
2023-02-17T20:21:26.890Z,0.67
2023-02-17T20:25:29.047Z,0.67
2023-02-17T20:29:31.252Z,0.87
2023-02-17T20:33:33.509Z,1.73
2023-02-17T20:37:35.777Z,1.07
2023-02-17T20:41:37.921Z,0.93
2023-02-17T20:45:40.418Z,0.77
2023-02-17T20:49:42.611Z,0.70
2023-02-17T20:53:44.866Z,1.10
2023-02-17T20:57:47.321Z,0.80
2023-02-17T21:01:49.454Z,1.17
2023-02-17T21:05:51.634Z,0.90
2023-02-17T21:09:53.849Z,0.90
2023-02-17T21:13:56.014Z,0.70
2023-02-17T21:17:58.216Z,0.77
2023-02-17T21:22:00.316Z,1.47
2023-02-17T21:26:02.668Z,1.00
2023-02-17T21:30:05.876Z,0.97
2023-02-17T21:34:08.057Z,0.70
2023-02-17T21:38:10.250Z,0.67
2023-02-17T21:42:12.410Z,0.57
2023-02-17T21:46:14.596Z,0.60
2023-02-17T21:50:17.245Z,0.70
2023-02-17T21:54:19.396Z,0.60
2023-02-17T21:58:21.520Z,0.80
2023-02-17T22:02:23.671Z,0.60
2023-02-17T22:06:27.236Z,1.27
2023-02-17T22:10:29.380Z,0.70
2023-02-17T22:14:31.563Z,0.60
2023-02-17T22:18:33.728Z,0.77
2023-02-17T22:22:35.958Z,1.03
2023-02-17T22:26:38.161Z,1.00
2023-02-17T22:30:40.358Z,1.17
2023-02-17T22:34:42.498Z,0.97
2023-02-17T22:38:44.775Z,0.73
2023-02-17T22:42:46.989Z,0.20
2023-02-17T22:46:49.105Z,1.50
2023-02-17T22:50:51.270Z,0.80
2023-02-17T22:54:53.438Z,0.37
2023-02-17T22:58:55.910Z,0.60
2023-02-17T23:02:58.160Z,0.97
2023-02-17T23:07:00.391Z,1.00
2023-02-17T23:11:06.984Z,0.70
2023-02-17T23:15:11.182Z,0.43
2023-02-17T23:19:15.434Z,1.17
2023-02-17T23:23:18.203Z,0.90
2023-02-17T23:27:20.431Z,1.00
2023-02-17T23:31:22.660Z,1.60
2023-02-17T23:35:24.926Z,0.90
2023-02-17T23:39:27.367Z,0.93
2023-02-17T23:43:29.650Z,1.00
2023-02-17T23:47:31.950Z,0.77
2023-02-17T23:51:34.107Z,0.60
2023-02-17T23:55:36.296Z,0.73
2023-02-17T23:59:38.538Z,0.50
